Time;durP1;ratioP1;P1;durP2;ratioP2;P2;SDS_P1;SDS_P2;PMS_P1;PMS_P2;Temp;Humidity;BMP_temperature;BMP_pressure;BME280_temperature;BME280_humidity;BME280_pressure;Samples;Min_cycle;Max_cycle;Signal;HPM_P1;HPM_P2
2024/01/15 00:00:40;;;;;;;65.22;18.33;;;;;;;-0.21;100.00;100294.63;5078949;28;20415;-86
2024/01/15 00:03:09;;;;;;;69.53;16.45;;;;;;;-0.19;100.00;100287.28;5078245;28;20165;-86
2024/01/15 00:05:35;;;;;;;62.45;16.77;;;;;;;-0.19;100.00;100289.13;5078356;28;20471;-86
2024/01/15 00:08:00;;;;;;;61.87;17.90;;;;;;;-0.18;100.00;100288.13;5078546;28;20035;-87
2024/01/15 00:10:26;;;;;;;59.92;15.98;;;;;;;-0.17;100.00;100280.97;5078527;28;20034;-86
2024/01/15 00:12:51;;;;;;;63.87;18.43;;;;;;;-0.19;100.00;100265.97;5078465;28;20028;-87
2024/01/15 00:15:20;;;;;;;61.03;16.87;;;;;;;-0.21;100.00;100272.44;5078086;28;20464;-85
2024/01/15 00:17:45;;;;;;;58.85;15.15;;;;;;;-0.22;100.00;100265.47;5078384;28;20071;-86
2024/01/15 00:20:14;;;;;;;57.63;14.82;;;;;;;-0.23;100.00;100263.78;5096531;28;20048;-86
2024/01/15 00:22:39;;;;;;;51.30;14.27;;;;;;;-0.24;100.00;100262.09;5078883;28;20043;-86
2024/01/15 00:25:08;;;;;;;56.53;16.08;;;;;;;-0.25;100.00;100266.59;5077843;28;20282;-88
2024/01/15 00:27:37;;;;;;;43.57;11.70;;;;;;;-0.24;100.00;100262.09;5095916;28;20061;-86
2024/01/15 00:30:02;;;;;;;54.22;15.23;;;;;;;-0.28;100.00;100256.25;5078176;28;20611;-86
2024/01/15 00:32:30;;;;;;;50.20;14.07;;;;;;;-0.28;100.00;100258.94;5078127;28;20031;-86
2024/01/15 00:34:57;;;;;;;37.08;10.52;;;;;;;-0.27;100.00;100259.75;5095563;28;20031;-86
2024/01/15 00:37:22;;;;;;;48.57;11.63;;;;;;;-0.28;100.00;100248.25;5078702;28;20384;-86
2024/01/15 00:39:48;;;;;;;34.47;9.77;;;;;;;-0.24;100.00;100246.09;5077878;28;20043;-86
2024/01/15 00:42:13;;;;;;;38.90;9.97;;;;;;;-0.21;100.00;100246.63;5078306;28;20031;-87
2024/01/15 00:44:39;;;;;;;30.70;9.03;;;;;;;-0.21;100.00;100240.44;5077706;28;20423;-87
2024/01/15 00:47:07;;;;;;;31.15;7.43;;;;;;;-0.22;100.00;100238.81;5078092;28;20059;-86
2024/01/15 00:49:35;;;;;;;16.63;5.07;;;;;;;-0.19;100.00;100233.97;5062057;28;20039;-86
2024/01/15 00:52:00;;;;;;;16.80;4.30;;;;;;;-0.19;100.00;100233.97;5077838;28;20379;-86
2024/01/15 00:54:26;;;;;;;17.83;4.20;;;;;;;-0.17;100.00;100228.47;5044177;28;20136;-87
2024/01/15 00:56:52;;;;;;;13.48;2.65;;;;;;;-0.17;100.00;100227.66;5077714;28;20046;-86
2024/01/15 00:59:17;;;;;;;7.70;2.43;;;;;;;-0.14;100.00;100225.47;5078059;28;20056;-86
2024/01/15 01:01:43;;;;;;;6.15;1.50;;;;;;;-0.09;100.00;100225.84;5077519;28;20342;-86
2024/01/15 01:04:12;;;;;;;6.15;1.45;;;;;;;-0.07;100.00;100225.69;5095706;28;20028;-87
2024/01/15 01:06:37;;;;;;;3.35;0.95;;;;;;;-0.07;100.00;100225.69;5061012;28;20043;-87
2024/01/15 01:09:03;;;;;;;4.50;0.90;;;;;;;-0.05;100.00;100218.34;5077391;28;20028;-87
2024/01/15 01:11:29;;;;;;;4.17;0.60;;;;;;;-0.09;100.00;100217.00;5077440;28;20468;-87
2024/01/15 01:13:56;;;;;;;8.50;0.70;;;;;;;-0.10;100.00;100216.16;5077001;28;20118;-87
2024/01/15 01:16:24;;;;;;;3.27;0.50;;;;;;;-0.07;100.00;100223.03;5077275;28;20043;-87
2024/01/15 01:18:49;;;;;;;4.38;0.75;;;;;;;-0.05;100.00;100219.16;5077272;28;20262;-87
2024/01/15 01:21:17;;;;;;;3.22;0.55;;;;;;;-0.05;100.00;100211.16;5060547;28;20028;-87
2024/01/15 01:23:45;;;;;;;4.20;0.60;;;;;;;-0.07;100.00;100199.00;5077399;28;20122;-87
2024/01/15 01:26:17;;;;;;;4.82;0.75;;;;;;;-0.07;100.00;100202.50;5077337;28;20103;-87
2024/01/15 01:28:46;;;;;;;3.67;1.20;;;;;;;-0.08;100.00;100218.69;5077326;28;20119;-87
2024/01/15 01:31:14;;;;;;;6.70;1.60;;;;;;;-0.10;100.00;100216.16;5077122;28;20380;-87
2024/01/15 01:33:42;;;;;;;6.95;0.77;;;;;;;-0.11;100.00;100208.34;5076908;28;20030;-87
2024/01/15 01:36:12;;;;;;;3.43;0.57;;;;;;;-0.12;100.00;100218.16;5095148;28;20048;-87
2024/01/15 01:38:38;;;;;;;3.53;0.77;;;;;;;-0.13;100.00;100221.81;5094935;28;20115;-89
2024/01/15 01:41:06;;;;;;;6.05;1.20;;;;;;;-0.09;100.00;100206.31;5076859;28;20059;-86
2024/01/15 01:43:31;;;;;;;4.20;0.88;;;;;;;-0.11;100.00;100211.00;5076584;28;20058;-87
2024/01/15 01:46:00;;;;;;;4.67;0.60;;;;;;;-0.10;100.00;100215.34;5077101;28;20067;-87
2024/01/15 01:48:29;;;;;;;4.20;0.90;;;;;;;-0.11;100.00;100214.50;5076760;28;20020;-89
2024/01/15 01:51:00;;;;;;;3.93;0.80;;;;;;;-0.15;100.00;100213.13;5076595;28;20119;-87
2024/01/15 01:53:28;;;;;;;4.10;0.60;;;;;;;-0.17;100.00;100214.31;5076551;28;20032;-87
2024/01/15 01:55:55;;;;;;;4.53;0.85;;;;;;;-0.14;100.00;100222.00;5095099;28;20039;-87
2024/01/15 01:58:31;;;;;;;5.25;0.68;;;;;;;-0.23;100.00;100218.44;5076696;28;20032;-87
2024/01/15 02:00:58;;;;;;;5.78;0.88;;;;;;;-0.30;100.00;100210.25;5076148;28;20036;-87
2024/01/15 02:03:25;;;;;;;7.60;0.60;;;;;;;-0.28;100.00;100221.59;5076526;28;20456;-87
2024/01/15 02:05:51;;;;;;;5.55;0.85;;;;;;;-0.30;100.00;100212.09;5059934;28;20036;-87
2024/01/15 02:08:21;;;;;;;4.05;0.60;;;;;;;-0.29;100.00;100213.78;5076542;28;20051;-87
2024/01/15 02:10:47;;;;;;;4.13;0.63;;;;;;;-0.31;100.00;100205.06;5060711;28;20067;-87
2024/01/15 02:13:13;;;;;;;6.80;0.80;;;;;;;-0.36;100.00;100201.06;5076408;28;20425;-87
2024/01/15 02:15:38;;;;;;;2.88;0.60;;;;;;;-0.36;100.00;100208.22;5076087;28;20545;-87
2024/01/15 02:18:06;;;;;;;3.93;0.77;;;;;;;-0.40;100.00;100207.72;5075804;28;20038;-87
2024/01/15 02:20:32;;;;;;;10.65;0.70;;;;;;;-0.44;100.00;100211.69;5059540;28;20056;-87
2024/01/15 02:23:12;;;;;;;9.85;0.60;;;;;;;-0.45;100.00;100202.03;5075970;28;20035;-87
2024/01/15 02:25:40;;;;;;;2.90;0.40;;;;;;;-0.44;100.00;100206.38;5093811;28;20103;-87
2024/01/15 02:28:07;;;;;;;5.50;0.52;;;;;;;-0.45;100.00;100206.53;5075989;28;20038;-88
2024/01/15 02:30:40;;;;;;;6.60;0.70;;;;;;;-0.44;100.00;100205.53;5076539;28;20036;-87
2024/01/15 02:33:06;;;;;;;5.90;0.47;;;;;;;-0.45;100.00;100198.53;5076068;28;20048;-87
2024/01/15 02:35:33;;;;;;;4.90;0.50;;;;;;;-0.50;100.00;100203.50;5076314;28;20452;-87
2024/01/15 02:37:58;;;;;;;12.10;0.77;;;;;;;-0.50;100.00;100196.34;5075755;28;20051;-87
2024/01/15 02:40:24;;;;;;;5.28;0.40;;;;;;;-0.52;100.00;100198.31;5076952;28;20028;-87
2024/01/15 02:42:49;;;;;;;3.43;0.40;;;;;;;-0.53;100.00;100199.34;5075772;28;20035;-87
2024/01/15 02:45:15;;;;;;;12.25;0.65;;;;;;;-0.55;100.00;100199.50;5076635;28;20077;-87
2024/01/15 02:47:43;;;;;;;7.13;0.57;;;;;;;-0.58;100.00;100191.78;5076990;28;20024;-88
2024/01/15 02:50:08;;;;;;;2.05;0.47;;;;;;;-0.58;100.00;100201.63;5094290;28;20028;-87
2024/01/15 02:52:38;;;;;;;4.10;0.63;;;;;;;-0.60;100.00;100195.63;5076251;28;20032;-87
2024/01/15 02:55:04;;;;;;;8.30;0.50;;;;;;;-0.60;100.00;100200.97;5060038;28;20120;-87
2024/01/15 02:57:30;;;;;;;4.45;0.30;;;;;;;-0.60;100.00;100196.44;5093478;28;20074;-87
2024/01/15 02:59:58;;;;;;;3.53;0.40;;;;;;;-0.62;100.00;100197.59;5076579;28;20039;-87
2024/01/15 03:02:23;;;;;;;6.43;0.88;;;;;;;-0.59;100.00;100205.28;5075372;28;20028;-86
2024/01/15 03:04:49;;;;;;;6.23;0.37;;;;;;;-0.54;100.00;100200.31;5075865;28;20025;-88
2024/01/15 03:07:18;;;;;;;6.63;0.40;;;;;;;-0.43;100.00;100215.19;5076150;28;20032;-87
2024/01/15 03:09:44;;;;;;;8.53;0.63;;;;;;;-0.41;100.00;100215.88;5076106;28;20028;-87
2024/01/15 03:12:09;;;;;;;6.75;0.40;;;;;;;-0.38;100.00;100211.06;5076424;28;20028;-86
2024/01/15 03:14:38;;;;;;;4.67;0.40;;;;;;;-0.46;100.00;100219.00;5076411;28;20504;-87
2024/01/15 03:17:08;;;;;;;6.53;0.47;;;;;;;-0.53;100.00;100212.66;5075697;28;20086;-86
2024/01/15 03:19:35;;;;;;;8.43;0.55;;;;;;;-0.53;100.00;100218.00;5075743;28;20024;-87
2024/01/15 03:22:02;;;;;;;6.40;0.50;;;;;;;-0.55;100.00;100217.28;5058373;28;20578;-87
2024/01/15 03:24:31;;;;;;;3.05;0.47;;;;;;;-0.56;100.00;100213.81;5075167;28;20031;-87
2024/01/15 03:26:57;;;;;;;10.60;0.50;;;;;;;-0.55;100.00;100207.50;5075590;28;20541;-88
2024/01/15 03:29:28;;;;;;;7.72;0.50;;;;;;;-0.58;100.00;100202.44;5093668;28;20032;-88
2024/01/15 03:31:53;;;;;;;5.10;0.50;;;;;;;-0.57;100.00;100195.31;5075529;28;20383;-87
2024/01/15 03:34:21;;;;;;;5.82;0.40;;;;;;;-0.57;100.00;100205.97;5075463;28;20028;-87
2024/01/15 03:36:47;;;;;;;6.17;0.90;;;;;;;-0.57;100.00;100201.47;5093057;28;20075;-87
2024/01/15 03:39:12;;;;;;;5.50;0.40;;;;;;;-0.50;100.00;100209.69;5075465;28;20484;-87
2024/01/15 03:41:38;;;;;;;3.33;0.50;;;;;;;-0.43;100.00;100207.19;5058322;28;20047;-86
2024/01/15 03:44:03;;;;;;;6.53;0.50;;;;;;;-0.39;100.00;100197.88;5074998;28;20506;-87
2024/01/15 03:46:32;;;;;;;7.38;0.60;;;;;;;-0.36;100.00;100200.22;5075367;28;20028;-85
2024/01/15 03:48:57;;;;;;;10.48;0.75;;;;;;;-0.36;100.00;100192.22;5093025;28;20085;-87
2024/01/15 03:51:23;;;;;;;5.90;0.87;;;;;;;-0.30;100.00;100191.59;5057979;28;20028;-87
2024/01/15 03:53:51;;;;;;;7.97;0.68;;;;;;;-0.28;100.00;100191.41;5092913;28;20266;-87
2024/01/15 03:56:18;;;;;;;9.15;0.77;;;;;;;-0.25;100.00;100191.94;5074627;28;20036;-87
2024/01/15 03:58:44;;;;;;;9.20;0.70;;;;;;;-0.22;100.00;100188.97;5074955;28;20388;-87
2024/01/15 04:01:10;;;;;;;18.45;0.85;;;;;;;-0.21;100.00;100174.66;5074727;28;20274;-86
2024/01/15 04:03:36;;;;;;;16.70;1.10;;;;;;;-0.21;100.00;100168.47;5074557;28;20539;-87
2024/01/15 04:06:02;;;;;;;9.10;0.75;;;;;;;-0.22;100.00;100169.47;5075307;28;20313;-87
2024/01/15 04:08:30;;;;;;;11.57;0.68;;;;;;;-0.18;100.00;100170.78;5074913;28;20118;-87
2024/01/15 04:10:55;;;;;;;4.57;0.80;;;;;;;-0.16;100.00;100178.63;5078385;28;20043;-87
2024/01/15 04:13:21;;;;;;;12.00;0.63;;;;;;;-0.13;100.00;100180.97;5078539;28;20032;-87
2024/01/15 04:15:52;;;;;;;6.43;0.67;;;;;;;-0.12;100.00;100171.97;5078242;28;20024;-86
2024/01/15 04:18:19;;;;;;;5.97;0.70;;;;;;;-0.11;100.00;100165.66;5062329;28;20060;-86
2024/01/15 04:20:45;;;;;;;10.00;1.10;;;;;;;-0.09;100.00;100172.50;5096112;28;20040;-86
2024/01/15 04:23:15;;;;;;;13.90;0.67;;;;;;;-0.11;100.00;100169.16;5078502;28;20039;-86
2024/01/15 04:25:42;;;;;;;5.05;0.40;;;;;;;-0.12;100.00;100159.47;5079069;28;20031;-87
2024/01/15 04:28:17;;;;;;;7.22;0.50;;;;;;;-0.09;100.00;100153.84;5096378;28;20065;-86
2024/01/15 04:30:42;;;;;;;3.83;0.50;;;;;;;-0.13;100.00;100156.97;5078101;28;20039;-87
2024/01/15 04:33:12;;;;;;;5.30;0.47;;;;;;;-0.12;100.00;100159.47;5077723;28;20024;-87
2024/01/15 04:35:38;;;;;;;3.53;0.30;;;;;;;-0.13;100.00;100157.81;5061974;28;20480;-86
2024/01/15 04:38:03;;;;;;;4.83;0.80;;;;;;;-0.10;100.00;100159.34;5078080;28;20090;-86
2024/01/15 04:40:29;;;;;;;5.95;0.40;;;;;;;-0.03;100.00;100185.19;5077910;28;20028;-86
2024/01/15 04:42:57;;;;;;;1.67;0.30;;;;;;;-0.10;100.00;100180.69;5078752;28;20127;-86
2024/01/15 04:45:31;;;;;;;7.90;0.35;;;;;;;-0.23;100.00;100163.28;5095657;28;20384;-87
2024/01/15 04:47:57;;;;;;;3.67;0.30;;;;;;;-0.33;100.00;100154.59;5078650;28;20372;-87
2024/01/15 04:50:23;;;;;;;3.63;0.45;;;;;;;-0.49;100.00;100152.69;5076953;28;20036;-88
2024/01/15 04:52:51;;;;;;;4.80;0.60;;;;;;;-0.55;100.00;100148.88;5077488;28;20449;-87
2024/01/15 04:55:19;;;;;;;5.65;0.40;;;;;;;-0.50;100.00;100142.19;5061354;28;20028;-87
2024/01/15 04:57:45;;;;;;;1.13;0.30;;;;;;;-0.52;100.00;100149.53;5077629;28;20072;-86
2024/01/15 05:00:13;;;;;;;0.88;0.20;;;;;;;-0.58;100.00;100138.50;5077655;28;20055;-85
2024/01/15 05:02:39;;;;;;;3.47;0.27;;;;;;;-0.61;100.00;100146.81;5078368;28;20024;-86
2024/01/15 05:05:07;;;;;;;4.68;0.20;;;;;;;-0.66;100.00;100150.97;5078321;28;20440;-85
2024/01/15 05:07:32;;;;;;;4.23;0.30;;;;;;;-0.67;100.00;100155.44;5078007;28;20059;-86
2024/01/15 05:10:00;;;;;;;4.40;0.30;;;;;;;-0.65;100.00;100150.81;5060816;28;20742;-86
2024/01/15 05:12:34;;;;;;;1.63;0.30;;;;;;;-0.64;100.00;100135.66;5077460;28;20024;-86
2024/01/15 05:15:00;;;;;;;15.27;0.40;;;;;;;-0.64;100.00;100139.13;5077642;28;20051;-86
2024/01/15 05:17:25;;;;;;;3.28;0.43;;;;;;;-0.64;100.00;100135.66;5044054;28;20749;-85
2024/01/15 05:19:51;;;;;;;2.50;0.30;;;;;;;-0.65;100.00;100129.50;5077945;28;20024;-86
2024/01/15 05:22:16;;;;;;;5.07;0.60;;;;;;;-0.65;100.00;100131.31;5060793;28;20054;-86
2024/01/15 05:24:42;;;;;;;4.68;0.55;;;;;;;-0.66;100.00;100127.00;5076837;28;20028;-86
2024/01/15 05:27:10;;;;;;;10.07;0.60;;;;;;;-0.70;100.00;100121.13;5076734;28;20499;-86
2024/01/15 05:29:36;;;;;;;7.97;0.85;;;;;;;-0.71;100.00;100122.13;5095101;28;20082;-86
2024/01/15 05:32:01;;;;;;;4.37;0.67;;;;;;;-0.72;100.00;100120.47;5077079;28;20465;-86
2024/01/15 05:34:29;;;;;;;4.53;0.60;;;;;;;-0.68;100.00;100118.31;5094931;28;20107;-86
2024/01/15 05:36:54;;;;;;;6.88;0.80;;;;;;;-0.64;100.00;100122.31;5094510;28;20048;-86
2024/01/15 05:39:22;;;;;;;5.27;0.70;;;;;;;-0.62;100.00;100125.66;5043539;28;20077;-87
2024/01/15 05:41:48;;;;;;;8.85;0.80;;;;;;;-0.59;100.00;100115.53;5060343;28;20126;-87
2024/01/15 05:44:13;;;;;;;7.83;1.13;;;;;;;-0.52;100.00;100106.88;5077649;28;20531;-86
2024/01/15 05:46:39;;;;;;;7.77;0.70;;;;;;;-0.48;100.00;100111.72;5076321;28;20032;-86
2024/01/15 05:49:04;;;;;;;10.48;0.90;;;;;;;-0.44;100.00;100110.41;5077371;28;20282;-86
2024/01/15 05:51:30;;;;;;;7.50;0.80;;;;;;;-0.42;100.00;100113.75;5076563;28;20027;-86
2024/01/15 05:53:55;;;;;;;20.07;1.67;;;;;;;-0.44;100.00;100115.75;5095250;28;20114;-87
2024/01/15 05:56:21;;;;;;;9.82;0.70;;;;;;;-0.60;100.00;100113.84;5059623;28;20028;-86
2024/01/15 05:58:46;;;;;;;5.80;0.43;;;;;;;-0.64;100.00;100107.16;5077255;28;20020;-86
2024/01/15 06:01:12;;;;;;;10.37;0.60;;;;;;;-0.62;100.00;100101.69;5076984;28;20456;-86
2024/01/15 06:03:37;;;;;;;9.93;0.67;;;;;;;-0.58;100.00;100109.19;5076363;28;20468;-85
2024/01/15 06:06:03;;;;;;;4.57;0.77;;;;;;;-0.52;100.00;100106.88;5095047;28;20024;-86
2024/01/15 06:08:28;;;;;;;6.80;0.70;;;;;;;-0.55;100.00;100103.56;5075857;28;20028;-86
2024/01/15 06:10:56;;;;;;;6.63;0.90;;;;;;;-0.54;100.00;100096.38;5076167;28;20028;-86
2024/01/15 06:13:21;;;;;;;8.88;0.80;;;;;;;-0.58;100.00;100095.84;5076488;28;20078;-86
2024/01/15 06:15:47;;;;;;;10.23;1.03;;;;;;;-0.57;100.00;100094.03;5059200;28;20484;-85
2024/01/15 06:18:14;;;;;;;6.50;0.90;;;;;;;-0.52;100.00;100090.91;5075853;28;20028;-85
2024/01/15 06:20:40;;;;;;;6.10;0.93;;;;;;;-0.50;100.00;100086.22;5043066;28;20024;-86
2024/01/15 06:23:05;;;;;;;9.50;1.13;;;;;;;-0.57;100.00;100094.03;5076571;28;20032;-86
2024/01/15 06:25:31;;;;;;;4.32;0.60;;;;;;;-0.50;100.00;100110.22;5075862;28;20024;-85
2024/01/15 06:27:56;;;;;;;2.08;0.80;;;;;;;-0.41;100.00;100106.59;5075993;28;20060;-85
2024/01/15 06:30:22;;;;;;;5.23;0.80;;;;;;;-0.36;100.00;100093.59;5075846;28;20036;-85
2024/01/15 06:32:47;;;;;;;4.10;0.63;;;;;;;-0.32;100.00;100091.47;5093593;28;20035;-85
2024/01/15 06:35:13;;;;;;;4.15;0.60;;;;;;;-0.29;100.00;100088.47;5075664;28;20093;-86
2024/01/15 06:37:38;;;;;;;7.25;0.70;;;;;;;-0.31;100.00;100090.44;5075365;28;20058;-85
2024/01/15 06:40:05;;;;;;;2.37;0.60;;;;;;;-0.41;100.00;100088.75;5076555;28;20036;-86
2024/01/15 06:42:31;;;;;;;3.67;0.70;;;;;;;-0.40;100.00;100108.25;5059255;28;20058;-86
2024/01/15 06:44:56;;;;;;;1.80;0.60;;;;;;;-0.46;100.00;100096.41;5075675;28;20104;-87
2024/01/15 06:47:24;;;;;;;6.97;1.10;;;;;;;-0.57;100.00;100099.38;5075456;28;20028;-85
2024/01/15 06:50:00;;;;;;;17.40;1.45;;;;;;;-0.80;100.00;100097.28;5093729;28;20051;-88
2024/01/15 06:52:25;;;;;;;18.15;1.00;;;;;;;-0.92;100.00;100098.56;5094119;28;20043;-88
2024/01/15 06:54:51;;;;;;;19.60;1.50;;;;;;;-0.95;100.00;100096.22;5075646;28;20024;-89
2024/01/15 06:57:22;;;;;;;18.27;1.20;;;;;;;-1.02;100.00;100090.66;5075904;28;20110;-89
2024/01/15 06:59:49;;;;;;;15.13;1.60;;;;;;;-1.04;100.00;100097.19;5076349;28;20031;-88
2024/01/15 07:02:15;;;;;;;17.30;1.20;;;;;;;-1.06;100.00;100084.03;5075554;28;20043;-89
2024/01/15 07:04:40;;;;;;;8.37;1.43;;;;;;;-1.04;100.00;100094.50;5075167;28;20032;-90
2024/01/15 07:07:06;;;;;;;4.90;1.10;;;;;;;-1.07;100.00;100080.50;5076044;28;20035;-88
2024/01/15 07:09:31;;;;;;;9.95;1.15;;;;;;;-1.06;100.00;100084.84;5075308;28;20706;-88
2024/01/15 07:11:58;;;;;;;6.30;1.60;;;;;;;-1.06;100.00;100081.34;5093845;28;20115;-88
2024/01/15 07:14:23;;;;;;;7.07;1.65;;;;;;;-1.02;100.00;100095.19;5059483;28;20086;-88
2024/01/15 07:16:49;;;;;;;12.30;1.92;;;;;;;-1.06;100.00;100092.00;5075453;28;20365;-87
2024/01/15 07:19:14;;;;;;;11.88;1.67;;;;;;;-1.06;100.00;100090.16;5058148;28;20381;-87
2024/01/15 07:21:42;;;;;;;10.10;2.13;;;;;;;-1.07;100.00;100087.66;5074830;28;20032;-87
2024/01/15 07:24:17;;;;;;;3.92;1.95;;;;;;;-1.06;100.00;100097.34;5058122;28;20119;-88
2024/01/15 07:26:42;;;;;;;9.93;1.63;;;;;;;-1.07;100.00;100093.81;5075400;28;20028;-86
2024/01/15 07:29:08;;;;;;;9.07;1.77;;;;;;;-1.05;100.00;100098.97;5074989;28;20521;-87
2024/01/15 07:31:33;;;;;;;7.68;1.80;;;;;;;-1.04;100.00;100097.19;5075088;28;20028;-86
2024/01/15 07:34:00;;;;;;;5.07;2.70;;;;;;;-1.03;100.00;100093.50;5074909;28;20032;-88
2024/01/15 07:36:25;;;;;;;3.15;1.27;;;;;;;-1.01;100.00;100095.00;5074492;28;20044;-86
2024/01/15 07:38:50;;;;;;;4.53;1.50;;;;;;;-0.99;100.00;100102.84;5093213;28;20032;-86
2024/01/15 07:41:16;;;;;;;7.23;1.87;;;;;;;-0.98;100.00;100091.22;5058449;28;20032;-85
2024/01/15 07:43:41;;;;;;;10.47;3.20;;;;;;;-0.97;100.00;100090.22;5060727;28;20532;-85
2024/01/15 07:46:07;;;;;;;10.52;3.60;;;;;;;-0.95;100.00;100097.03;5078566;28;20035;-86
2024/01/15 07:48:33;;;;;;;8.27;3.50;;;;;;;-0.94;100.00;100098.72;5078754;28;20059;-85
2024/01/15 07:50:58;;;;;;;12.73;3.40;;;;;;;-0.92;100.00;100106.53;5097000;28;20065;-85
2024/01/15 07:53:24;;;;;;;5.43;2.33;;;;;;;-0.85;100.00;100099.59;5062035;28;20040;-84
2024/01/15 07:55:49;;;;;;;7.73;2.83;;;;;;;-0.89;100.00;100123.06;5078850;28;20031;-84
2024/01/15 07:58:14;;;;;;;5.97;3.50;;;;;;;-0.88;100.00;100111.38;5096380;28;20024;-84
2024/01/15 08:00:43;;;;;;;9.27;3.37;;;;;;;-0.85;100.00;100126.22;5079048;28;20055;-85
2024/01/15 08:03:08;;;;;;;6.65;2.88;;;;;;;-0.84;100.00;100119.06;5078425;28;20032;-85
2024/01/15 08:05:34;;;;;;;7.30;3.10;;;;;;;-0.83;100.00;100124.22;5096410;28;20041;-85
2024/01/15 08:08:00;;;;;;;8.68;3.55;;;;;;;-0.81;100.00;100132.91;5061836;28;20064;-84
2024/01/15 08:10:25;;;;;;;9.47;3.97;;;;;;;-0.83;100.00;100126.88;5044905;28;20036;-84
2024/01/15 08:12:51;;;;;;;6.38;3.55;;;;;;;-0.81;100.00;100118.75;5078880;28;20035;-84
2024/01/15 08:15:17;;;;;;;8.50;3.47;;;;;;;-0.79;100.00;100120.25;5062110;28;20071;-84
2024/01/15 08:17:42;;;;;;;6.03;2.97;;;;;;;-0.76;100.00;100135.09;5062022;28;20028;-84
2024/01/15 08:20:08;;;;;;;8.40;3.47;;;;;;;-0.75;100.00;100140.25;5044675;28;20611;-84
2024/01/15 08:22:33;;;;;;;6.83;2.80;;;;;;;-0.75;100.00;100132.28;5078707;28;20028;-84
2024/01/15 08:24:59;;;;;;;5.63;2.67;;;;;;;-0.72;100.00;100133.78;5061458;28;20032;-85
2024/01/15 08:27:24;;;;;;;6.40;2.72;;;;;;;-0.73;100.00;100121.47;5061527;28;20130;-86
2024/01/15 08:29:50;;;;;;;10.13;2.65;;;;;;;-0.77;100.00;100123.63;5061764;28;20040;-84
2024/01/15 08:32:15;;;;;;;6.63;2.67;;;;;;;-0.76;100.00;100121.78;5078003;28;20082;-85
2024/01/15 08:34:42;;;;;;;6.63;2.67;;;;;;;-0.77;100.00;100131.59;5077901;28;20077;-85
2024/01/15 08:37:07;;;;;;;5.25;2.53;;;;;;;-0.76;100.00;100132.44;5077959;28;20097;-85
2024/01/15 08:39:33;;;;;;;5.73;2.40;;;;;;;-0.76;100.00;100143.91;5077792;28;20119;-85
2024/01/15 08:42:01;;;;;;;2.90;1.40;;;;;;;-0.75;100.00;100142.94;5077872;28;20455;-85
2024/01/15 08:44:29;;;;;;;2.80;1.27;;;;;;;-0.71;100.00;100140.78;5060713;28;20044;-85
2024/01/15 08:46:55;;;;;;;4.47;0.77;;;;;;;-0.73;100.00;100146.25;5078127;28;20036;-86
2024/01/15 08:49:20;;;;;;;4.20;1.20;;;;;;;-0.75;100.00;100134.94;5077430;28;20024;-86
2024/01/15 08:51:46;;;;;;;6.50;1.00;;;;;;;-0.75;100.00;100136.78;5095472;28;20107;-85
2024/01/15 08:54:11;;;;;;;6.70;0.95;;;;;;;-0.78;100.00;100151.25;5044157;28;20487;-89
2024/01/15 08:56:37;;;;;;;2.83;0.50;;;;;;;-0.74;100.00;100127.78;5061230;28;20123;-85
2024/01/15 08:59:02;;;;;;;5.33;0.50;;;;;;;-0.68;100.00;100148.44;5060607;28;20438;-85
2024/01/15 09:01:31;;;;;;;2.87;0.57;;;;;;;-0.64;100.00;100130.31;5077685;28;20032;-84
2024/01/15 09:03:56;;;;;;;4.85;0.50;;;;;;;-0.65;100.00;100134.81;5077725;28;20032;-84
2024/01/15 09:06:21;;;;;;;5.27;0.40;;;;;;;-0.63;100.00;100148.00;5077506;28;20437;-84
2024/01/15 09:08:47;;;;;;;3.93;0.40;;;;;;;-0.60;100.00;100129.84;5060831;28;20041;-84
2024/01/15 09:11:12;;;;;;;1.75;0.50;;;;;;;-0.61;100.00;100133.50;5077512;28;20028;-85
2024/01/15 09:13:38;;;;;;;3.23;0.40;;;;;;;-0.58;100.00;100143.00;5060714;28;20044;-84
2024/01/15 09:16:04;;;;;;;4.80;0.50;;;;;;;-0.59;100.00;100138.66;5043974;28;20054;-84
2024/01/15 09:18:29;;;;;;;1.00;0.50;;;;;;;-0.58;100.00;100143.00;5095097;28;20469;-84
2024/01/15 09:20:55;;;;;;;5.33;0.30;;;;;;;-0.56;100.00;100136.53;5095106;28;20036;-84
2024/01/15 09:23:21;;;;;;;2.05;0.40;;;;;;;-0.52;100.00;100144.19;5060512;28;20031;-84
2024/01/15 09:25:47;;;;;;;2.63;0.40;;;;;;;-0.52;100.00;100154.84;5077278;28;20024;-84
2024/01/15 09:28:13;;;;;;;6.20;0.50;;;;;;;-0.50;100.00;100144.84;5077810;28;20040;-84
2024/01/15 09:30:39;;;;;;;2.90;0.40;;;;;;;-0.45;100.00;100147.88;5060522;28;20391;-84
2024/01/15 09:33:05;;;;;;;2.10;0.60;;;;;;;-0.41;100.00;100136.75;5095080;28;20043;-85
2024/01/15 09:35:30;;;;;;;3.05;0.80;;;;;;;-0.39;100.00;100128.59;5077221;28;20024;-84
2024/01/15 09:37:55;;;;;;;2.93;0.57;;;;;;;-0.35;100.00;100135.25;5060503;28;20138;-85
2024/01/15 09:40:21;;;;;;;3.50;0.60;;;;;;;-0.29;100.00;100133.78;5060241;28;20043;-85
2024/01/15 09:42:47;;;;;;;2.93;0.73;;;;;;;-0.32;100.00;100137.59;5060139;28;20155;-86
2024/01/15 09:45:13;;;;;;;3.58;0.60;;;;;;;-0.28;100.00;100138.97;5077025;28;20028;-84
2024/01/15 09:47:41;;;;;;;7.90;0.50;;;;;;;-0.28;100.00;100148.78;5094758;28;20369;-84
2024/01/15 09:50:07;;;;;;;6.23;0.73;;;;;;;-0.30;100.00;100150.78;5076641;28;20024;-87
2024/01/15 09:52:35;;;;;;;4.30;0.40;;;;;;;-0.30;100.00;100162.25;5060028;28;20781;-85
2024/01/15 09:55:03;;;;;;;5.30;0.60;;;;;;;-0.29;100.00;100171.94;5076599;28;20100;-84
2024/01/15 09:57:28;;;;;;;3.35;0.80;;;;;;;-0.35;100.00;100169.91;5095336;28;20040;-85
2024/01/15 09:59:56;;;;;;;7.47;1.00;;;;;;;-0.37;100.00;100169.22;5076452;28;20044;-85
2024/01/15 10:02:21;;;;;;;5.25;1.00;;;;;;;-0.41;100.00;100165.25;5076284;28;20058;-85
2024/01/15 10:04:47;;;;;;;5.77;1.03;;;;;;;-0.40;100.00;100177.56;5076560;28;20070;-84
2024/01/15 10:07:19;;;;;;;6.47;1.00;;;;;;;-0.39;100.00;100168.56;5058987;28;20365;-85
2024/01/15 10:09:45;;;;;;;4.78;1.00;;;;;;;-0.36;100.00;100173.56;5061299;28;20059;-87
2024/01/15 10:12:11;;;;;;;3.08;1.00;;;;;;;-0.17;100.00;100166.31;5060071;28;20100;-85
2024/01/15 10:14:37;;;;;;;4.47;1.25;;;;;;;-0.08;100.00;100179.50;5059374;28;20535;-86
2024/01/15 10:17:14;;;;;;;9.40;1.47;;;;;;;-0.08;100.00;100165.34;5076182;28;20064;-85
2024/01/15 10:19:41;;;;;;;10.07;1.42;;;;;;;-0.10;100.00;100154.00;5060286;28;20040;-85
2024/01/15 10:22:09;;;;;;;6.90;1.63;;;;;;;-0.11;100.00;100158.50;5059600;28;20032;-85
2024/01/15 10:24:36;;;;;;;6.63;1.75;;;;;;;-0.09;100.00;100156.50;5094105;28;20290;-86
2024/01/15 10:27:09;;;;;;;4.65;1.38;;;;;;;-0.03;100.00;100166.53;5077095;28;20372;-85
2024/01/15 10:29:35;;;;;;;7.70;1.63;;;;;;;0.04;100.00;100152.53;5075662;28;20030;-85
2024/01/15 10:32:01;;;;;;;3.67;1.10;;;;;;;0.07;100.00;100150.34;5093990;28;20111;-85
2024/01/15 10:34:27;;;;;;;5.30;1.53;;;;;;;0.14;100.00;100158.53;5042586;28;20519;-85
2024/01/15 10:36:55;;;;;;;4.18;1.30;;;;;;;0.32;100.00;100153.88;5075715;28;20060;-85
2024/01/15 10:39:22;;;;;;;6.03;1.93;;;;;;;0.37;100.00;100144.56;5094318;28;20094;-85
2024/01/15 10:41:47;;;;;;;6.75;1.77;;;;;;;0.21;100.00;100161.38;5075651;28;20039;-85
2024/01/15 10:44:13;;;;;;;4.68;1.70;;;;;;;0.13;100.00;100155.06;5075404;28;20036;-85
2024/01/15 10:46:39;;;;;;;10.80;1.80;;;;;;;0.14;100.00;100154.03;5042360;28;20039;-85
2024/01/15 10:49:05;;;;;;;5.03;1.60;;;;;;;0.21;100.00;100161.38;5075590;28;20036;-85
2024/01/15 10:51:31;;;;;;;4.30;1.70;;;;;;;0.26;100.00;100149.22;5059080;28;20098;-84
2024/01/15 10:53:57;;;;;;;6.03;1.52;;;;;;;0.32;100.00;100169.91;5058903;28;20270;-84
2024/01/15 10:56:23;;;;;;;8.55;1.52;;;;;;;0.31;100.00;100152.25;5075451;28;20036;-84
2024/01/15 10:58:50;;;;;;;4.57;0.93;;;;;;;0.33;100.00;100152.06;5058845;28;20062;-84
2024/01/15 11:01:19;;;;;;;11.18;1.40;;;;;;;0.38;100.00;100148.91;5075857;28;20273;-85
2024/01/15 11:03:45;;;;;;;6.35;1.20;;;;;;;0.33;100.00;100144.88;5042480;28;20032;-86
2024/01/15 11:06:25;;;;;;;5.50;1.00;;;;;;;0.28;100.00;100138.38;5075319;28;20032;-85
2024/01/15 11:08:52;;;;;;;6.75;0.80;;;;;;;0.25;100.00;100150.22;5075230;28;20062;-85
2024/01/15 11:11:18;;;;;;;4.97;1.13;;;;;;;0.22;100.00;100153.22;5075835;28;20047;-85
2024/01/15 11:13:46;;;;;;;7.75;0.80;;;;;;;0.29;100.00;100156.88;5093506;28;20357;-86